Time;durP1;ratioP1;P1;durP2;ratioP2;P2;SDS_P1;SDS_P2;PMS_P1;PMS_P2;Temp;Humidity;BMP_temperature;BMP_pressure;BME280_temperature;BME280_humidity;BME280_pressure;Samples;Min_cycle;Max_cycle;Signal;HPM_P1;HPM_P2
2022/05/01 00:01:52;;;;;;;21.77;18.05;;;;;;;;;;4970809;28;21974;-77
2022/05/01 00:04:18;;;;;;;20.83;18.30;;;;;;;;;;4970024;28;20437;-77
2022/05/01 00:06:44;;;;;;;20.73;17.92;;;;;;;;;;4984854;28;20429;-76
2022/05/01 00:09:10;;;;;;;20.70;18.60;;;;;;;;;;4994861;28;20440;-76
2022/05/01 00:11:37;;;;;;;20.70;18.52;;;;;;;;;;4973946;28;20507;-76
2022/05/01 00:14:03;;;;;;;20.13;18.02;;;;;;;;;;5002545;28;20433;-76
2022/05/01 00:16:29;;;;;;;22.17;19.00;;;;;;;;;;4989856;28;20487;-76
2022/05/01 00:18:55;;;;;;;21.98;19.60;;;;;;;;;;4969930;28;20456;-77
2022/05/01 00:21:21;;;;;;;24.25;20.77;;;;;;;;;;4982742;28;20436;-76
2022/05/01 00:23:47;;;;;;;20.27;17.10;;;;;;;;;;4988389;28;20054;-76
2022/05/01 00:26:13;;;;;;;20.33;15.88;;;;;;;;;;4971792;28;20045;-76
2022/05/01 00:28:40;;;;;;;19.95;15.10;;;;;;;;;;4972616;28;20480;-77
2022/05/01 00:31:06;;;;;;;19.55;15.23;;;;;;;;;;4986665;28;20045;-77
2022/05/01 00:36:28;;;;;;;21.17;15.35;;;;;;;;;;4989167;28;20045;-76
2022/05/01 00:38:54;;;;;;;21.27;15.68;;;;;;;;;;4971622;28;20037;-76
2022/05/01 00:41:23;;;;;;;18.83;14.20;;;;;;;;;;4989038;28;20045;-76
2022/05/01 00:44:08;;;;;;;22.70;15.75;;;;;;;;;;4972370;28;20046;-76
2022/05/01 00:46:35;;;;;;;21.10;16.80;;;;;;;;;;4986911;28;20056;-76
2022/05/01 00:49:02;;;;;;;19.42;16.55;;;;;;;;;;4972213;28;20069;-76
2022/05/01 00:51:29;;;;;;;18.58;15.00;;;;;;;;;;4989190;28;20045;-76
2022/05/01 00:53:55;;;;;;;23.08;16.45;;;;;;;;;;4988131;28;20038;-76
2022/05/01 00:56:22;;;;;;;20.98;16.00;;;;;;;;;;4988470;28;20077;-76
2022/05/01 00:58:49;;;;;;;23.00;16.60;;;;;;;;;;4970668;28;20104;-75
2022/05/01 01:01:15;;;;;;;22.90;16.63;;;;;;;;;;4970568;28;20132;-75
2022/05/01 01:03:41;;;;;;;24.23;16.05;;;;;;;;;;4987582;28;20513;-75
2022/05/01 01:06:07;;;;;;;20.90;15.95;;;;;;;;;;4970265;28;20765;-75
2022/05/01 01:08:33;;;;;;;21.45;15.82;;;;;;;;;;4971873;28;20046;-76
2022/05/01 01:10:59;;;;;;;19.20;16.55;;;;;;;;;;4971537;28;20057;-75
2022/05/01 01:13:29;;;;;;;25.75;17.08;;;;;;;;;;4986205;28;20123;-75
2022/05/01 01:15:55;;;;;;;24.20;17.63;;;;;;;;;;4988091;28;20054;-75
2022/05/01 01:18:22;;;;;;;23.85;18.98;;;;;;;;;;4971231;28;20050;-75
2022/05/01 01:20:48;;;;;;;22.20;17.27;;;;;;;;;;4970818;28;20076;-75
2022/05/01 01:23:15;;;;;;;23.23;17.45;;;;;;;;;;4955816;28;20089;-77
2022/05/01 01:25:41;;;;;;;25.33;19.55;;;;;;;;;;5016651;28;20057;-75
2022/05/01 01:28:08;;;;;;;29.45;19.23;;;;;;;;;;4985294;28;20046;-75
2022/05/01 01:33:19;;;;;;;21.05;16.38;;;;;;;;;;4985113;28;20097;-75
2022/05/01 01:35:50;;;;;;;19.55;16.17;;;;;;;;;;4972412;28;20132;-75
2022/05/01 01:38:17;;;;;;;20.35;16.38;;;;;;;;;;4991198;28;20419;-75
2022/05/01 01:40:53;;;;;;;18.63;16.30;;;;;;;;;;4987549;28;20424;-75
2022/05/01 01:43:23;;;;;;;22.13;16.75;;;;;;;;;;4986845;28;20401;-75
2022/05/01 01:45:49;;;;;;;22.48;17.92;;;;;;;;;;4994078;28;20103;-76
2022/05/01 01:48:21;;;;;;;23.23;18.50;;;;;;;;;;4970453;28;20038;-75
2022/05/01 01:50:58;;;;;;;24.95;17.73;;;;;;;;;;4971128;28;20495;-75
2022/05/01 01:53:25;;;;;;;20.55;15.95;;;;;;;;;;4988783;28;20508;-76
2022/05/01 01:55:51;;;;;;;20.70;16.52;;;;;;;;;;4987802;28;20064;-76
2022/05/01 01:58:18;;;;;;;19.70;15.82;;;;;;;;;;4973420;28;20038;-77
2022/05/01 02:00:44;;;;;;;20.90;17.25;;;;;;;;;;4987513;28;20497;-76
2022/05/01 02:03:10;;;;;;;21.17;16.40;;;;;;;;;;4987570;28;20042;-76
2022/05/01 02:05:37;;;;;;;22.30;16.60;;;;;;;;;;4972251;28;20041;-76
2022/05/01 02:08:07;;;;;;;17.92;15.13;;;;;;;;;;4971992;28;20053;-76
2022/05/01 02:10:33;;;;;;;17.25;14.80;;;;;;;;;;4992121;28;20456;-76
2022/05/01 02:13:02;;;;;;;20.38;15.70;;;;;;;;;;5000396;28;20121;-75
2022/05/01 02:15:32;;;;;;;20.65;17.02;;;;;;;;;;4990245;28;20056;-76
2022/05/01 02:17:58;;;;;;;18.92;15.95;;;;;;;;;;4990904;28;20042;-75
2022/05/01 02:20:25;;;;;;;22.33;17.63;;;;;;;;;;4991386;28;20543;-75
2022/05/01 02:22:53;;;;;;;20.05;15.98;;;;;;;;;;4991638;28;21194;-77
2022/05/01 02:25:21;;;;;;;22.05;15.95;;;;;;;;;;5002101;28;20081;-75
2022/05/01 02:27:47;;;;;;;21.73;16.83;;;;;;;;;;4991507;28;20179;-75
2022/05/01 02:30:14;;;;;;;19.48;16.92;;;;;;;;;;5010543;28;20093;-75
2022/05/01 02:32:40;;;;;;;27.20;18.95;;;;;;;;;;4989450;28;20092;-76
2022/05/01 02:35:07;;;;;;;26.13;19.17;;;;;;;;;;4974123;28;20209;-76
2022/05/01 02:37:33;;;;;;;30.45;22.50;;;;;;;;;;4958691;28;20397;-75
2022/05/01 02:39:59;;;;;;;34.30;21.02;;;;;;;;;;4988604;28;20044;-75
2022/05/01 02:42:25;;;;;;;26.10;19.17;;;;;;;;;;4990621;28;20132;-76
2022/05/01 02:44:51;;;;;;;28.73;19.90;;;;;;;;;;4957297;28;20044;-75
2022/05/01 02:47:18;;;;;;;27.40;20.95;;;;;;;;;;4991788;28;20138;-76
2022/05/01 02:49:44;;;;;;;26.65;19.48;;;;;;;;;;4974712;28;20041;-75
2022/05/01 02:52:10;;;;;;;27.60;20.40;;;;;;;;;;4990138;28;20160;-75
2022/05/01 02:54:36;;;;;;;23.52;19.00;;;;;;;;;;4970484;28;20524;-75
2022/05/01 02:57:03;;;;;;;26.23;18.75;;;;;;;;;;4971666;28;20058;-75
2022/05/01 02:59:29;;;;;;;31.50;22.27;;;;;;;;;;4975215;28;20053;-74
2022/05/01 03:01:55;;;;;;;27.88;19.80;;;;;;;;;;4990218;28;20045;-74
2022/05/01 03:04:21;;;;;;;29.38;20.13;;;;;;;;;;4971597;28;20081;-75
2022/05/01 03:06:48;;;;;;;27.42;20.30;;;;;;;;;;4988937;28;20433;-74
2022/05/01 03:09:14;;;;;;;25.20;18.88;;;;;;;;;;4990462;28;20049;-74
2022/05/01 03:11:40;;;;;;;27.08;20.05;;;;;;;;;;4992473;28;20181;-75
2022/05/01 03:14:09;;;;;;;28.23;19.83;;;;;;;;;;4967114;28;20038;-76
2022/05/01 03:16:36;;;;;;;29.15;20.90;;;;;;;;;;4957346;28;20045;-74
2022/05/01 03:24:32;;;;;;;28.50;20.05;;;;;;;;;;4988101;28;20054;-74
2022/05/01 03:26:58;;;;;;;27.85;19.83;;;;;;;;;;4988450;28;20168;-74
2022/05/01 03:29:24;;;;;;;27.92;19.70;;;;;;;;;;4994324;28;20049;-75
2022/05/01 03:31:50;;;;;;;30.27;20.00;;;;;;;;;;4972167;28;20359;-74
2022/05/01 03:34:17;;;;;;;25.58;19.13;;;;;;;;;;4988138;28;20461;-75
2022/05/01 03:36:44;;;;;;;26.13;19.17;;;;;;;;;;4989456;28;20053;-75
2022/05/01 03:39:11;;;;;;;27.02;18.25;;;;;;;;;;4972361;28;20041;-74
2022/05/01 03:41:38;;;;;;;28.67;19.77;;;;;;;;;;4972937;28;20107;-74
2022/05/01 03:44:05;;;;;;;27.73;20.75;;;;;;;;;;5014135;28;20493;-75
2022/05/01 03:46:31;;;;;;;25.85;19.17;;;;;;;;;;4993336;28;20046;-74
2022/05/01 03:48:57;;;;;;;27.80;19.67;;;;;;;;;;4989075;28;20046;-75
2022/05/01 03:51:23;;;;;;;24.15;19.17;;;;;;;;;;4991093;28;20137;-75
2022/05/01 03:53:50;;;;;;;23.80;19.00;;;;;;;;;;4971782;28;20050;-75
2022/05/01 03:56:16;;;;;;;22.65;17.20;;;;;;;;;;4972669;28;20378;-74
2022/05/01 03:58:42;;;;;;;22.33;17.75;;;;;;;;;;4991468;28;20037;-74
2022/05/01 04:01:08;;;;;;;25.08;18.10;;;;;;;;;;4985772;28;20045;-74
2022/05/01 04:03:34;;;;;;;23.10;17.75;;;;;;;;;;4989607;28;20165;-75
2022/05/01 04:06:00;;;;;;;24.85;18.88;;;;;;;;;;4984525;28;20061;-75
2022/05/01 04:08:26;;;;;;;23.23;18.30;;;;;;;;;;4972737;28;20058;-75
2022/05/01 04:10:52;;;;;;;23.33;16.88;;;;;;;;;;4989970;28;20050;-75
2022/05/01 04:13:18;;;;;;;22.23;17.40;;;;;;;;;;4985156;28;20575;-76
2022/05/01 04:15:45;;;;;;;23.60;18.50;;;;;;;;;;4953711;28;20088;-75
2022/05/01 04:18:12;;;;;;;21.50;17.55;;;;;;;;;;4987220;28;20046;-75
2022/05/01 04:20:38;;;;;;;20.33;16.52;;;;;;;;;;4971992;28;20084;-75
2022/05/01 04:23:06;;;;;;;21.73;17.40;;;;;;;;;;4996189;28;20405;-75
2022/05/01 04:25:33;;;;;;;21.08;17.20;;;;;;;;;;4968905;28;20057;-75
2022/05/01 04:28:04;;;;;;;20.70;16.50;;;;;;;;;;4986514;28;20108;-74
2022/05/01 04:30:33;;;;;;;22.10;17.33;;;;;;;;;;4987852;28;20512;-74
2022/05/01 04:33:00;;;;;;;20.40;17.33;;;;;;;;;;4971610;28;20041;-77
2022/05/01 04:35:31;;;;;;;19.17;17.08;;;;;;;;;;4987986;28;20057;-77
2022/05/01 04:38:03;;;;;;;20.98;17.08;;;;;;;;;;4970499;28;20050;-76
2022/05/01 04:40:31;;;;;;;19.75;16.77;;;;;;;;;;4971631;28;20049;-77
2022/05/01 04:43:04;;;;;;;20.70;17.52;;;;;;;;;;4989607;28;20148;-77
2022/05/01 04:45:31;;;;;;;22.63;19.05;;;;;;;;;;4988301;28;20045;-77
2022/05/01 04:47:57;;;;;;;22.33;18.00;;;;;;;;;;4971771;28;20091;-77
2022/05/01 04:50:23;;;;;;;22.52;19.33;;;;;;;;;;4969603;28;20045;-76
2022/05/01 04:52:49;;;;;;;24.00;19.30;;;;;;;;;;4972462;28;20069;-76
2022/05/01 04:55:16;;;;;;;20.23;17.60;;;;;;;;;;4970367;28;20096;-76
2022/05/01 04:57:42;;;;;;;19.15;17.08;;;;;;;;;;4987106;28;20508;-76
2022/05/01 05:00:08;;;;;;;20.25;17.75;;;;;;;;;;4951175;28;20062;-76
2022/05/01 05:02:39;;;;;;;19.17;17.00;;;;;;;;;;4971040;28;20104;-76
2022/05/01 05:05:05;;;;;;;20.65;17.42;;;;;;;;;;4971900;28;20050;-76
2022/05/01 05:07:31;;;;;;;21.40;17.60;;;;;;;;;;4988173;28;20060;-76
2022/05/01 05:09:58;;;;;;;24.52;18.85;;;;;;;;;;4985705;28;20099;-77
2022/05/01 05:12:24;;;;;;;20.20;18.02;;;;;;;;;;4987485;28;20516;-76
2022/05/01 05:14:52;;;;;;;19.77;17.15;;;;;;;;;;4987160;28;20045;-76
2022/05/01 05:17:22;;;;;;;16.80;15.00;;;;;;;;;;4970910;28;20124;-77
2022/05/01 05:19:48;;;;;;;16.45;14.38;;;;;;;;;;4985057;28;20044;-76
2022/05/01 05:22:15;;;;;;;17.00;13.50;;;;;;;;;;4981608;28;20050;-77
2022/05/01 05:24:41;;;;;;;13.90;12.40;;;;;;;;;;4975960;28;20053;-75
2022/05/01 05:27:07;;;;;;;14.05;12.52;;;;;;;;;;4954233;28;20058;-76
2022/05/01 05:29:34;;;;;;;12.77;11.57;;;;;;;;;;4946102;28;20140;-75
2022/05/01 05:32:00;;;;;;;12.52;10.95;;;;;;;;;;4978455;28;20084;-76
2022/05/01 05:34:26;;;;;;;11.23;10.13;;;;;;;;;;4976927;28;20224;-76
2022/05/01 05:36:53;;;;;;;12.15;11.00;;;;;;;;;;5001389;28;20054;-76
2022/05/01 05:39:19;;;;;;;11.68;10.57;;;;;;;;;;4979872;28;20401;-77
2022/05/01 05:41:45;;;;;;;11.52;10.27;;;;;;;;;;4987868;28;20132;-76
2022/05/01 05:44:11;;;;;;;11.05;9.50;;;;;;;;;;4986452;28;20155;-77
2022/05/01 05:46:37;;;;;;;11.52;10.43;;;;;;;;;;4990073;28;20034;-76
2022/05/01 05:49:04;;;;;;;10.23;9.23;;;;;;;;;;4973698;28;20520;-77
2022/05/01 05:51:30;;;;;;;11.45;10.45;;;;;;;;;;4971137;28;20432;-76
2022/05/01 05:53:56;;;;;;;11.88;10.80;;;;;;;;;;4991664;28;20466;-78
2022/05/01 05:56:23;;;;;;;11.70;10.52;;;;;;;;;;4994571;28;20954;-77
2022/05/01 05:58:49;;;;;;;10.23;9.23;;;;;;;;;;4990206;28;20478;-76
2022/05/01 06:01:15;;;;;;;10.63;9.63;;;;;;;;;;4958098;28;20436;-76
2022/05/01 06:03:41;;;;;;;8.85;7.80;;;;;;;;;;4987206;28;22359;-78
2022/05/01 06:06:09;;;;;;;10.15;9.15;;;;;;;;;;4988688;28;20950;-79
2022/05/01 06:08:35;;;;;;;10.13;8.90;;;;;;;;;;4969230;28;20439;-77
2022/05/01 06:11:01;;;;;;;10.05;7.97;;;;;;;;;;4990330;28;20428;-77
2022/05/01 06:13:28;;;;;;;11.43;9.10;;;;;;;;;;4990787;28;20428;-76
2022/05/01 06:15:54;;;;;;;11.82;9.20;;;;;;;;;;4991376;28;20436;-76
2022/05/01 06:18:20;;;;;;;17.30;9.93;;;;;;;;;;4972528;28;20432;-77
2022/05/01 06:20:47;;;;;;;14.57;9.37;;;;;;;;;;4990542;28;20421;-76
2022/05/01 06:23:13;;;;;;;11.13;8.10;;;;;;;;;;4972963;28;20433;-76
2022/05/01 06:25:43;;;;;;;11.25;8.18;;;;;;;;;;4988305;28;20444;-76
2022/05/01 06:28:09;;;;;;;11.57;8.32;;;;;;;;;;4990002;28;20424;-76
2022/05/01 06:30:38;;;;;;;10.38;7.00;;;;;;;;;;4990518;28;20433;-77
2022/05/01 06:33:04;;;;;;;9.20;7.53;;;;;;;;;;4974430;28;20433;-76
2022/05/01 06:35:31;;;;;;;7.68;6.97;;;;;;;;;;4990928;28;20432;-76
2022/05/01 06:38:00;;;;;;;8.43;7.53;;;;;;;;;;5007039;28;20424;-75
2022/05/01 06:40:26;;;;;;;9.77;7.70;;;;;;;;;;4972735;28;20436;-77
2022/05/01 06:42:52;;;;;;;7.43;6.72;;;;;;;;;;4989068;28;20531;-76
2022/05/01 06:45:18;;;;;;;7.75;6.95;;;;;;;;;;4972067;28;20428;-76
2022/05/01 06:47:44;;;;;;;8.30;6.70;;;;;;;;;;4990574;28;20811;-77
2022/05/01 06:50:10;;;;;;;7.90;7.10;;;;;;;;;;4954655;28;20871;-78
2022/05/01 06:52:37;;;;;;;7.22;6.53;;;;;;;;;;4991541;28;20444;-77
2022/05/01 06:55:04;;;;;;;7.57;6.60;;;;;;;;;;4969423;28;20832;-77
2022/05/01 06:57:30;;;;;;;7.17;6.47;;;;;;;;;;4972855;28;20433;-76
2022/05/01 06:59:56;;;;;;;9.68;6.70;;;;;;;;;;4969974;28;20436;-79
2022/05/01 07:02:23;;;;;;;8.20;6.17;;;;;;;;;;4969359;28;20441;-76
2022/05/01 07:04:49;;;;;;;8.00;6.22;;;;;;;;;;4968409;28;20433;-78
2022/05/01 07:07:15;;;;;;;6.83;6.00;;;;;;;;;;5011968;28;20495;-77
2022/05/01 07:09:41;;;;;;;7.95;6.40;;;;;;;;;;4990337;28;20432;-77
2022/05/01 07:12:10;;;;;;;6.40;5.85;;;;;;;;;;4990639;28;20439;-76
2022/05/01 07:14:37;;;;;;;8.02;6.00;;;;;;;;;;4968685;28;20430;-76
2022/05/01 07:17:03;;;;;;;6.70;5.57;;;;;;;;;;4989813;28;20490;-76
2022/05/01 07:19:29;;;;;;;7.63;5.65;;;;;;;;;;4984576;28;20427;-77
2022/05/01 07:21:56;;;;;;;6.63;5.40;;;;;;;;;;4989741;28;20429;-77
2022/05/01 07:24:22;;;;;;;6.35;5.75;;;;;;;;;;4988055;28;20432;-78
2022/05/01 07:26:48;;;;;;;7.07;6.35;;;;;;;;;;4988229;28;20440;-76
2022/05/01 07:29:14;;;;;;;7.00;4.82;;;;;;;;;;4971203;28;20499;-78
2022/05/01 07:31:42;;;;;;;6.15;5.47;;;;;;;;;;4988461;28;20467;-76
2022/05/01 07:34:09;;;;;;;6.43;5.63;;;;;;;;;;5005342;28;20437;-78
2022/05/01 07:36:35;;;;;;;5.53;4.72;;;;;;;;;;4985804;28;20434;-76
2022/05/01 07:39:01;;;;;;;5.75;5.10;;;;;;;;;;4988756;28;20954;-78
2022/05/01 07:41:27;;;;;;;7.65;5.90;;;;;;;;;;4970961;28;20448;-77
2022/05/01 07:43:55;;;;;;;5.68;4.28;;;;;;;;;;4990924;28;20432;-76
2022/05/01 07:46:22;;;;;;;6.40;4.60;;;;;;;;;;4970528;28;20437;-76
2022/05/01 07:48:48;;;;;;;6.63;5.03;;;;;;;;;;4988849;28;20507;-77
2022/05/01 07:51:17;;;;;;;8.70;5.72;;;;;;;;;;4988895;28;20504;-77
2022/05/01 07:53:43;;;;;;;7.43;5.43;;;;;;;;;;4973393;28;20499;-77
2022/05/01 07:56:09;;;;;;;6.82;4.20;;;;;;;;;;4970659;28;20436;-76
2022/05/01 07:58:36;;;;;;;6.33;5.00;;;;;;;;;;4970980;28;20547;-77
2022/05/01 08:01:03;;;;;;;6.97;5.20;;;;;;;;;;4969391;28;20465;-77
2022/05/01 08:06:14;;;;;;;6.43;5.00;;;;;;;;;;4987212;28;20504;-75
2022/05/01 08:08:41;;;;;;;5.85;5.07;;;;;;;;;;4987117;28;20435;-74
2022/05/01 08:11:08;;;;;;;6.35;5.28;;;;;;;;;;4972820;28;20935;-77
2022/05/01 08:13:34;;;;;;;6.10;5.43;;;;;;;;;;4986291;28;20747;-77
2022/05/01 08:16:00;;;;;;;6.57;5.72;;;;;;;;;;4984528;28;20425;-77
2022/05/01 08:21:11;;;;;;;5.82;5.07;;;;;;;;;;4973796;28;20431;-77
2022/05/01 08:23:41;;;;;;;6.45;4.80;;;;;;;;;;4972032;28;20436;-76
2022/05/01 08:26:10;;;;;;;5.05;4.43;;;;;;;;;;4971195;28;20511;-76
2022/05/01 08:28:37;;;;;;;5.13;4.60;;;;;;;;;;4970875;28;20424;-76
2022/05/01 08:31:04;;;;;;;5.95;4.60;;;;;;;;;;4997380;28;20432;-76
2022/05/01 08:33:30;;;;;;;6.30;4.88;;;;;;;;;;4992981;28;20435;-77
2022/05/01 08:35:56;;;;;;;7.07;4.90;;;;;;;;;;5003092;28;20506;-76
2022/05/01 08:38:22;;;;;;;6.75;4.85;;;;;;;;;;4993147;28;20474;-76
2022/05/01 08:40:49;;;;;;;6.70;5.30;;;;;;;;;;4970832;28;20431;-77
2022/05/01 08:43:16;;;;;;;6.05;5.20;;;;;;;;;;4990127;28;20753;-79
2022/05/01 08:45:45;;;;;;;6.63;5.18;;;;;;;;;;4984207;28;20441;-77
2022/05/01 08:48:19;;;;;;;7.18;5.30;;;;;;;;;;4971428;28;20514;-77
2022/05/01 08:50:47;;;;;;;5.93;5.10;;;;;;;;;;4987293;28;20432;-78
2022/05/01 08:53:14;;;;;;;6.35;5.25;;;;;;;;;;4988600;28;20515;-77
2022/05/01 08:55:41;;;;;;;6.55;5.13;;;;;;;;;;4985288;28;20432;-76
2022/05/01 08:58:08;;;;;;;7.13;5.07;;;;;;;;;;4987445;28;20474;-76
2022/05/01 09:00:34;;;;;;;6.70;5.10;;;;;;;;;;4983852;28;20428;-78
2022/05/01 09:03:03;;;;;;;7.20;5.23;;;;;;;;;;4983579;28;20439;-75
2022/05/01 09:05:29;;;;;;;6.47;5.28;;;;;;;;;;4988457;28;20916;-75
2022/05/01 09:07:55;;;;;;;7.53;5.38;;;;;;;;;;5001324;28;20655;-77
2022/05/01 09:10:25;;;;;;;6.72;4.97;;;;;;;;;;4986862;28;20460;-77
2022/05/01 09:12:53;;;;;;;6.78;5.07;;;;;;;;;;4978337;28;20443;-75
2022/05/01 09:15:30;;;;;;;6.43;5.30;;;;;;;;;;4967421;28;20911;-78
2022/05/01 09:18:01;;;;;;;5.75;5.00;;;;;;;;;;4991463;28;20444;-73
2022/05/01 09:20:27;;;;;;;7.78;5.28;;;;;;;;;;5010559;28;20987;-74
